Strona główna
METAR-TAF:

METAR-TAF

Lotnisko :

Port lotniczy Gloucester

Gloucester, Anglia

Szerokość geograficzna: 51-54N, Długość geograficzna: 002-10W, wysokość: 29 m

Aktualna obserwacja pogody

Raport powstał 15 godziny i 57 minut temu, godzina 14:50 UTC
Wiatr 8 kt od wschód
Temperatura 25°C
Wilgotność 30%
Ciśnienie 1021 hPa
Widzialność 10 km lub więcej
Mało chmury na wysokości 4500 ft

METAR: EGBJ 311450Z 08008KT 9999 FEW045 25/06 Q1021

czas: 07:47 (06:47 UTC)

Prognoza

Raport powstał 16 godziny i 52 minut temu, godzina 13:55 UTC
Prognoza ważna od 31 godzina 15 UTC do 31 godzina 24 UTC
Wiatr 9 kt od wschód
Widzialność 10 km lub więcej
Mało chmury na wysokości 4500 ft

TAF: EGBJ 311355Z 3115/3124 10009KT 9999 FEW045

Obserwacja i prognoza pogody dla ponad 4000 lotnisk (raport METAR i TAF).

Dostępne stacje oznaczono żółtymi i czerwonymi punktami na mapie.

Najedź kursorem aby zobaczyć nazwę stacji.

Kliknij aby zobaczyć obserwacje i prognozy pogody.

Aby zmienić mapę: kliknij na zielony przycisk z czarnym krzyżykiem, aby powiększyć; na zielony przycisk z myślnikiem, aby pomniejszyć; na zielone strzałki, aby przejść do map sąsiednich.


METAR-TAF: